Time;durP1;ratioP1;P1;durP2;ratioP2;P2;SDS_P1;SDS_P2;PMS_P1;PMS_P2;Temp;Humidity;BMP_temperature;BMP_pressure;BME280_temperature;BME280_humidity;BME280_pressure;Samples;Min_cycle;Max_cycle;Signal;HPM_P1;HPM_P2
2020/12/22 00:02:24;;;;;;;;;;;;;;;9.34;57.92;101008.75;5991010;23;96643;-91
2020/12/22 00:04:50;;;;;;;;;;;;;;;9.04;58.64;100999.88;5989186;23;96759;-91
2020/12/22 00:07:16;;;;;;;;;;;;;;;9.22;58.16;100997.66;5991230;23;101120;-91
2020/12/22 00:09:42;;;;;;;;;;;;;;;9.42;58.24;101005.94;5988840;23;99675;-92
2020/12/22 00:12:28;;;;;;;;;;;;;;;8.94;58.78;101008.03;5988445;23;96742;-92
2020/12/22 00:20:41;;;;;;;;;;;;;;;9.05;59.11;100984.94;5983599;23;98791;-91
2020/12/22 00:25:48;;;;;;;;;;;;;;;9.32;57.90;100967.53;5985589;23;96783;-93
2020/12/22 00:28:31;;;;;;;;;;;;;;;9.42;57.92;100969.88;5987982;23;98219;-90
2020/12/22 00:30:58;;;;;;;;;;;;;;;9.66;57.15;100965.66;5988475;23;98837;-91
2020/12/22 00:36:18;;;;;;;;;;;;;;;9.59;57.54;100950.91;5984123;23;96851;-91
2020/12/22 00:38:44;;;;;;;;;;;;;;;9.59;57.75;100943.00;5986359;23;98009;-92
2020/12/22 00:41:17;;;;;;;;;;;;;;;9.76;57.07;100939.91;5985425;23;98320;-92
2020/12/22 00:43:43;;;;;;;;;;;;;;;9.72;57.29;100941.75;5992019;23;96739;-91
2020/12/22 00:46:14;;;;;;;;;;;;;;;9.31;58.20;100935.03;5990368;23;96828;-91
2020/12/22 00:48:40;;;;;;;;;;;;;;;9.35;58.36;100930.50;5991419;23;97039;-90
2020/12/22 00:51:13;;;;;;;;;;;;;;;9.32;58.29;100928.81;5990399;23;101174;-91
2020/12/22 00:53:41;;;;;;;;;;;;;;;9.32;58.52;100914.78;5991955;23;96643;-90
2020/12/22 00:56:10;;;;;;;;;;;;;;;9.32;58.68;100912.16;5987292;23;96687;-91
2020/12/22 00:58:36;;;;;;;;;;;;;;;9.62;58.05;100898.09;5986562;23;96718;-92
2020/12/22 01:01:03;;;;;;;;;;;;;;;9.79;57.02;100905.50;5980642;23;97763;-90
2020/12/22 01:03:28;;;;;;;;;;;;;;;9.48;58.01;100900.25;5980658;23;96654;-91
2020/12/22 01:05:54;;;;;;;;;;;;;;;9.74;57.51;100905.63;5982113;23;97279;-90
2020/12/22 01:08:21;;;;;;;;;;;;;;;9.58;57.71;100888.53;5981391;23;98508;-89
2020/12/22 01:10:47;;;;;;;;;;;;;;;9.45;58.44;100880.09;5980464;23;100249;-91
2020/12/22 01:16:02;;;;;;;;;;;;;;;10.04;56.53;100873.97;5977582;23;96450;-89
2020/12/22 01:18:28;;;;;;;;;;;;;;;9.36;58.29;100858.41;5983802;23;97083;-90
2020/12/22 01:20:54;;;;;;;;;;;;;;;9.46;58.32;100850.16;5982949;23;99705;-90
2020/12/22 01:23:21;;;;;;;;;;;;;;;9.30;58.76;100863.84;5984486;23;96674;-90
2020/12/22 01:25:47;;;;;;;;;;;;;;;10.05;56.42;100862.47;5989048;23;96799;-90
2020/12/22 01:28:13;;;;;;;;;;;;;;;9.84;57.20;100859.59;5992986;23;100050;-90
2020/12/22 01:30:39;;;;;;;;;;;;;;;9.94;56.43;100861.03;5988991;23;97940;-91
2020/12/22 01:33:08;;;;;;;;;;;;;;;9.64;58.07;100854.06;5988797;23;96863;-90
2020/12/22 01:35:34;;;;;;;;;;;;;;;9.60;57.84;100839.22;5990843;23;96547;-89
2020/12/22 01:38:00;;;;;;;;;;;;;;;9.69;58.00;100841.59;5990642;23;99041;-90
2020/12/22 01:40:27;;;;;;;;;;;;;;;9.88;57.35;100832.19;5991588;23;97124;-91
2020/12/22 01:42:53;;;;;;;;;;;;;;;9.87;57.43;100832.22;5992192;23;96445;-91
2020/12/22 01:45:19;;;;;;;;;;;;;;;9.82;57.37;100827.09;5984005;23;96530;-90
2020/12/22 01:47:46;;;;;;;;;;;;;;;10.11;56.82;100820.88;5981140;23;96703;-91
2020/12/22 01:50:14;;;;;;;;;;;;;;;9.95;56.99;100817.03;5980156;23;102359;-91
2020/12/22 01:52:43;;;;;;;;;;;;;;;10.23;56.33;100806.47;5986747;23;96779;-91
2020/12/22 01:58:05;;;;;;;;;;;;;;;10.16;56.31;100791.72;5993628;23;98119;-84
2020/12/22 02:00:31;;;;;;;;;;;;;;;10.17;56.36;100786.41;5998756;23;98148;-86
2020/12/22 02:02:57;;;;;;;;;;;;;;;10.26;56.14;100774.66;6000699;23;97840;-88
2020/12/22 02:05:25;;;;;;;;;;;;;;;10.56;55.42;100781.56;5984808;23;96667;-90
2020/12/22 02:07:50;;;;;;;;;;;;;;;10.44;55.79;100779.31;5983690;23;99391;-90
2020/12/22 02:10:16;;;;;;;;;;;;;;;10.67;55.33;100782.03;5990108;23;97929;-92
2020/12/22 02:18:12;;;;;;;;;;;;;;;10.50;57.18;100762.41;5995282;23;99255;-91
2020/12/22 02:20:45;;;;;;;;;;;;;;;10.66;56.90;100761.81;5988409;23;99047;-91
2020/12/22 02:23:15;;;;;;;;;;;;;;;10.66;57.44;100753.88;5996105;23;96528;-91
2020/12/22 02:25:49;;;;;;;;;;;;;;;10.50;57.80;100763.25;5998495;23;96716;-92
2020/12/22 02:28:21;;;;;;;;;;;;;;;10.17;58.81;100744.16;5996712;23;98528;-91
2020/12/22 02:30:47;;;;;;;;;;;;;;;10.60;57.82;100740.03;5985324;23;99487;-91
2020/12/22 02:33:15;;;;;;;;;;;;;;;10.67;57.87;100737.13;5983934;23;96677;-91
2020/12/22 02:35:43;;;;;;;;;;;;;;;10.47;58.67;100736.97;5986373;23;97103;-92
2020/12/22 02:38:09;;;;;;;;;;;;;;;10.15;60.15;100737.16;5984992;23;101037;-91
2020/12/22 02:40:50;;;;;;;;;;;;;;;10.19;59.99;100722.97;5983514;23;99178;-91
2020/12/22 02:43:20;;;;;;;;;;;;;;;10.11;60.54;100717.91;5982666;23;96862;-90
2020/12/22 02:45:50;;;;;;;;;;;;;;;10.16;60.59;100715.13;5982701;23;96622;-91
2020/12/22 02:48:17;;;;;;;;;;;;;;;10.37;60.44;100709.16;5982827;23;100409;-90
2020/12/22 02:50:47;;;;;;;;;;;;;;;10.06;61.30;100705.78;5982539;23;100574;-91
2020/12/22 02:53:22;;;;;;;;;;;;;;;10.50;60.52;100691.91;5984501;23;96573;-91
2020/12/22 02:55:48;;;;;;;;;;;;;;;10.26;61.28;100684.88;5984353;23;96759;-90
2020/12/22 02:58:14;;;;;;;;;;;;;;;10.15;61.67;100684.38;5983075;23;99522;-90
2020/12/22 03:00:41;;;;;;;;;;;;;;;10.19;62.22;100680.72;5961699;23;99168;-90
2020/12/22 03:03:07;;;;;;;;;;;;;;;10.12;62.46;100672.13;5996574;23;96584;-90
2020/12/22 03:05:33;;;;;;;;;;;;;;;10.28;62.37;100672.50;5997418;23;96854;-91
2020/12/22 03:07:59;;;;;;;;;;;;;;;10.42;62.19;100675.50;5998797;23;98283;-91
2020/12/22 03:10:28;;;;;;;;;;;;;;;10.50;62.18;100670.78;5997780;23;100241;-91
2020/12/22 03:12:54;;;;;;;;;;;;;;;10.56;62.06;100670.59;5998010;23;96481;-91
2020/12/22 03:15:20;;;;;;;;;;;;;;;10.29;63.44;100663.66;5999006;23;96224;-89
2020/12/22 03:17:47;;;;;;;;;;;;;;;10.03;64.69;100655.75;5998440;23;100095;-88
2020/12/22 03:20:14;;;;;;;;;;;;;;;10.51;62.94;100654.00;5998975;23;99274;-89
2020/12/22 03:22:41;;;;;;;;;;;;;;;10.36;63.35;100650.19;5999896;23;96449;-88
2020/12/22 03:25:07;;;;;;;;;;;;;;;10.54;63.32;100656.56;5999544;23;96050;-90
2020/12/22 03:27:34;;;;;;;;;;;;;;;10.46;63.73;100640.13;5999900;23;96755;-90
2020/12/22 03:30:00;;;;;;;;;;;;;;;10.51;63.73;100640.81;5996054;23;96515;-91
2020/12/22 03:32:26;;;;;;;;;;;;;;;10.31;64.58;100630.97;5984131;23;96747;-90
2020/12/22 03:34:54;;;;;;;;;;;;;;;10.16;65.32;100625.38;5983076;23;96702;-89
2020/12/22 03:37:20;;;;;;;;;;;;;;;10.40;64.66;100619.22;5984977;23;98059;-89
2020/12/22 03:39:47;;;;;;;;;;;;;;;10.34;64.83;100600.97;5985944;23;99312;-89
2020/12/22 03:42:13;;;;;;;;;;;;;;;10.42;65.06;100604.19;5984004;23;96535;-90
2020/12/22 03:44:39;;;;;;;;;;;;;;;10.75;63.64;100597.63;5984234;23;96903;-89
2020/12/22 03:47:05;;;;;;;;;;;;;;;10.14;65.74;100595.50;5983198;23;97931;-90
2020/12/22 03:49:34;;;;;;;;;;;;;;;10.28;65.97;100585.34;5980637;23;100241;-91
2020/12/22 03:52:02;;;;;;;;;;;;;;;10.40;65.76;100590.16;5984497;23;96534;-91
2020/12/22 03:54:33;;;;;;;;;;;;;;;10.56;65.35;100590.47;5985943;23;96839;-90
2020/12/22 03:56:59;;;;;;;;;;;;;;;10.28;66.54;100580.06;5987132;23;97891;-90
2020/12/22 03:59:25;;;;;;;;;;;;;;;10.22;66.60;100570.59;5961733;23;99397;-88
2020/12/22 04:01:51;;;;;;;;;;;;;;;10.29;66.75;100565.94;5988087;23;96779;-89
2020/12/22 04:04:18;;;;;;;;;;;;;;;10.36;66.26;100549.81;5987686;23;96794;-89
2020/12/22 04:06:44;;;;;;;;;;;;;;;10.11;67.55;100554.22;5990766;23;98424;-89
2020/12/22 04:09:11;;;;;;;;;;;;;;;10.70;65.80;100546.72;5965523;23;99312;-88
2020/12/22 04:11:39;;;;;;;;;;;;;;;10.44;66.66;100536.28;5994496;23;96593;-89
2020/12/22 04:14:05;;;;;;;;;;;;;;;10.39;67.13;100536.47;5995105;23;96557;-88
2020/12/22 04:16:34;;;;;;;;;;;;;;;10.55;66.56;100527.97;5991770;23;98792;-89
2020/12/22 04:19:01;;;;;;;;;;;;;;;10.68;66.09;100535.34;5989433;23;100454;-89
2020/12/22 04:21:27;;;;;;;;;;;;;;;10.72;65.81;100526.38;5987523;23;96448;-89
2020/12/22 04:23:53;;;;;;;;;;;;;;;10.69;65.89;100518.59;5982741;23;96855;-90
2020/12/22 04:26:22;;;;;;;;;;;;;;;10.36;67.54;100498.75;5958543;23;98610;-90
2020/12/22 04:28:48;;;;;;;;;;;;;;;10.61;66.97;100507.44;5988486;23;98099;-90
2020/12/22 04:31:14;;;;;;;;;;;;;;;10.54;66.99;100511.25;5992527;23;96554;-91
2020/12/22 04:33:41;;;;;;;;;;;;;;;10.32;68.03;100499.78;5996261;23;96879;-89
2020/12/22 04:36:07;;;;;;;;;;;;;;;10.77;66.23;100505.03;5998294;23;99098;-90
2020/12/22 04:38:33;;;;;;;;;;;;;;;10.52;67.31;100486.66;5998713;23;97841;-90
2020/12/22 04:41:00;;;;;;;;;;;;;;;10.49;67.89;100499.16;6000089;23;96523;-91
2020/12/22 04:43:29;;;;;;;;;;;;;;;10.67;67.19;100490.50;5974256;23;96066;-91
2020/12/22 04:46:00;;;;;;;;;;;;;;;10.62;67.11;100488.03;5998245;23;97901;-91
2020/12/22 04:48:29;;;;;;;;;;;;;;;10.70;67.43;100475.34;5998140;23;99091;-88
2020/12/22 04:50:55;;;;;;;;;;;;;;;10.86;66.50;100475.59;5999620;23;96225;-88
2020/12/22 04:53:23;;;;;;;;;;;;;;;10.94;66.42;100462.09;5999212;23;96595;-89
2020/12/22 04:55:51;;;;;;;;;;;;;;;10.82;66.89;100473.16;5993010;23;98524;-91
2020/12/22 04:58:18;;;;;;;;;;;;;;;11.07;66.16;100463.28;5988078;23;99259;-90
2020/12/22 05:00:45;;;;;;;;;;;;;;;10.66;67.36;100459.69;5992162;23;96559;-90
2020/12/22 05:03:12;;;;;;;;;;;;;;;10.76;67.67;100456.59;5963576;23;96815;-90
2020/12/22 05:05:37;;;;;;;;;;;;;;;10.91;66.85;100462.19;5995667;23;97500;-88
2020/12/22 05:08:04;;;;;;;;;;;;;;;11.17;66.16;100457.53;5999005;23;96833;-88
2020/12/22 05:10:29;;;;;;;;;;;;;;;10.68;68.19;100461.38;5997824;23;96527;-91
2020/12/22 05:12:57;;;;;;;;;;;;;;;11.02;66.98;100454.69;5994458;23;96574;-92
2020/12/22 05:15:27;;;;;;;;;;;;;;;11.03;66.90;100451.97;5985516;23;96940;-90
2020/12/22 05:17:53;;;;;;;;;;;;;;;11.35;65.88;100450.63;5989520;23;98380;-91
2020/12/22 05:20:21;;;;;;;;;;;;;;;11.21;66.68;100446.84;5997926;23;96321;-92
2020/12/22 05:22:48;;;;;;;;;;;;;;;11.36;66.08;100439.09;5998626;23;96019;-91
2020/12/22 05:25:16;;;;;;;;;;;;;;;11.26;66.19;100437.78;5997523;23;100544;-89
2020/12/22 05:27:44;;;;;;;;;;;;;;;11.41;66.14;100431.84;5998063;23;99994;-89
2020/12/22 05:30:10;;;;;;;;;;;;;;;11.48;66.16;100430.63;5999153;23;95928;-89
2020/12/22 05:32:37;;;;;;;;;;;;;;;11.56;65.93;100417.91;5997513;23;96274;-90
2020/12/22 05:35:06;;;;;;;;;;;;;;;11.38;66.54;100423.16;5994900;23;99191;-89
2020/12/22 05:37:38;;;;;;;;;;;;;;;11.13;67.83;100412.78;5991007;23;96893;-89
2020/12/22 05:40:09;;;;;;;;;;;;;;;11.26;67.89;100400.75;5966664;23;96426;-91
2020/12/22 05:42:36;;;;;;;;;;;;;;;11.17;68.41;100401.13;5995626;23;96587;-90
2020/12/22 05:45:03;;;;;;;;;;;;;;;11.38;67.61;100404.63;5963684;23;99053;-90
2020/12/22 05:47:30;;;;;;;;;;;;;;;11.15;68.45;100400.38;5996982;23;98126;-90
2020/12/22 05:49:57;;;;;;;;;;;;;;;11.42;67.90;100385.91;5994734;23;96686;-91
2020/12/22 05:52:25;;;;;;;;;;;;;;;11.43;67.88;100392.06;5988985;23;96513;-91
2020/12/22 05:54:54;;;;;;;;;;;;;;;11.13;69.31;100389.84;5982737;23;100554;-91
2020/12/22 05:57:23;;;;;;;;;;;;;;;11.23;68.83;100390.28;5982964;23;99130;-91
2020/12/22 05:59:49;;;;;;;;;;;;;;;11.39;68.77;100379.91;5980610;23;96587;-90
2020/12/22 06:02:23;;;;;;;;;;;;;;;11.28;69.30;100393.63;5981912;23;96995;-91
2020/12/22 06:04:49;;;;;;;;;;;;;;;11.53;68.94;100377.50;5983924;23;98280;-90
2020/12/22 06:07:18;;;;;;;;;;;;;;;11.52;68.99;100376.66;5992174;23;99899;-90
2020/12/22 06:09:45;;;;;;;;;;;;;;;11.43;69.12;100374.41;5998661;23;97932;-89
2020/12/22 06:12:11;;;;;;;;;;;;;;;11.53;69.05;100374.84;5997375;23;96481;-89
2020/12/22 06:17:27;;;;;;;;;;;;;;;11.46;69.48;100369.00;5993206;23;96482;-86
2020/12/22 06:19:52;;;;;;;;;;;;;;;11.48;70.13;100367.13;5999104;23;96010;-90
2020/12/22 06:22:20;;;;;;;;;;;;;;;11.80;69.19;100371.00;5998391;23;96337;-89
2020/12/22 06:24:54;;;;;;;;;;;;;;;11.84;68.97;100361.09;5997976;23;100096;-89
2020/12/22 06:27:20;;;;;;;;;;;;;;;11.90;68.75;100363.47;5997664;23;96819;-89
2020/12/22 06:29:47;;;;;;;;;;;;;;;11.80;68.98;100364.84;5994559;23;96519;-91
2020/12/22 06:32:24;;;;;;;;;;;;;;;11.70;69.49;100363.50;5994148;23;96778;-91
2020/12/22 06:34:50;;;;;;;;;;;;;;;11.70;69.88;100352.91;5988139;23;98227;-90
2020/12/22 06:37:20;;;;;;;;;;;;;;;11.80;69.86;100355.09;5980954;23;99264;-91
2020/12/22 06:39:48;;;;;;;;;;;;;;;11.84;69.87;100354.03;5979334;23;96865;-91
2020/12/22 06:45:21;;;;;;;;;;;;;;;12.04;68.93;100338.97;6004760;23;99541;-91
2020/12/22 06:47:49;;;;;;;;;;;;;;;12.10;69.38;100351.94;6008620;23;100948;-91
2020/12/22 06:50:36;;;;;;;;;;;;;;;11.94;70.25;100336.78;6012232;23;96814;-90
2020/12/22 06:53:02;;;;;;;;;;;;;;;11.80;70.31;100351.59;6010829;23;96616;-91
2020/12/22 06:55:42;;;;;;;;;;;;;;;12.06;69.88;100345.94;6011878;23;97355;-91
2020/12/22 06:58:11;;;;;;;;;;;;;;;12.04;70.26;100336.34;6014118;23;100165;-92
2020/12/22 07:00:37;;;;;;;;;;;;;;;11.82;71.43;100334.69;6011556;23;96858;-91
2020/12/22 07:03:11;;;;;;;;;;;;;;;11.92;71.61;100337.78;6011659;23;96628;-92
2020/12/22 07:05:38;;;;;;;;;;;;;;;12.33;70.03;100328.72;6011738;23;101106;-91
2020/12/22 07:08:05;;;;;;;;;;;;;;;12.56;69.07;100330.19;6012701;23;98132;-91
2020/12/22 07:10:34;;;;;;;;;;;;;;;12.43;69.70;100317.63;6011669;23;96784;-91
2020/12/22 07:13:00;;;;;;;;;;;;;;;12.23;70.75;100313.31;5993970;23;96847;-91
2020/12/22 07:15:47;;;;;;;;;;;;;;;12.52;69.49;100319.84;6018620;23;97181;-92
2020/12/22 07:18:29;;;;;;;;;;;;;;;12.59;69.51;100323.91;6021596;23;96341;-91
2020/12/22 07:20:56;;;;;;;;;;;;;;;12.48;70.19;100313.81;6012519;23;96619;-91
2020/12/22 07:23:22;;;;;;;;;;;;;;;12.68;69.24;100310.16;6012949;23;96516;-91
2020/12/22 07:25:48;;;;;;;;;;;;;;;12.52;70.06;100323.34;6010092;23;99035;-91
2020/12/22 07:28:14;;;;;;;;;;;;;;;12.60;69.77;100315.00;6011301;23;99890;-90
2020/12/22 07:30:41;;;;;;;;;;;;;;;12.73;69.50;100324.88;6015075;23;96676;-90
2020/12/22 07:33:15;;;;;;;;;;;;;;;12.51;69.97;100312.81;6016355;23;96878;-91
2020/12/22 07:35:43;;;;;;;;;;;;;;;12.55;70.30;100320.53;6014843;23;99072;-89
2020/12/22 07:38:10;;;;;;;;;;;;;;;12.71;69.79;100326.78;6018522;23;96818;-90
2020/12/22 07:40:36;;;;;;;;;;;;;;;12.64;70.00;100313.91;6022752;23;96447;-92
2020/12/22 07:43:04;;;;;;;;;;;;;;;12.58;70.62;100317.72;6025517;23;96622;-89
2020/12/22 07:45:30;;;;;;;;;;;;;;;12.66;70.44;100314.69;6026308;23;98648;-87
2020/12/22 07:47:56;;;;;;;;;;;;;;;12.92;69.61;100311.56;6026810;23;101005;-87
2020/12/22 07:53:08;;;;;;;;;;;;;;;12.71;70.46;100310.00;6026388;23;96707;-91
2020/12/22 07:55:42;;;;;;;;;;;;;;;12.96;69.57;100315.75;6027901;23;98886;-85
2020/12/22 07:58:09;;;;;;;;;;;;;;;12.97;69.50;100312.19;6027170;23;96852;-93
2020/12/22 08:03:17;;;;;;;;;;;;;;;13.20;69.19;100323.41;6020806;23;96147;-91
2020/12/22 08:05:56;;;;;;;;;;;;;;;13.18;69.01;100317.34;5998910;23;97573;-92
2020/12/22 08:08:23;;;;;;;;;;;;;;;13.06;69.31;100309.03;6023243;23;96404;-92
2020/12/22 08:10:49;;;;;;;;;;;;;;;13.10;69.33;100321.22;6021879;23;96560;-92
2020/12/22 08:13:16;;;;;;;;;;;;;;;12.92;70.13;100319.53;6021163;23;96430;-91
2020/12/22 08:15:43;;;;;;;;;;;;;;;13.10;69.57;100320.34;6017727;23;96943;-93
2020/12/22 08:18:11;;;;;;;;;;;;;;;13.14;69.38;100327.22;6018328;23;96732;-93
2020/12/22 08:20:38;;;;;;;;;;;;;;;13.10;69.96;100323.88;6017524;23;96502;-91
2020/12/22 08:23:06;;;;;;;;;;;;;;;13.33;69.10;100321.81;6018150;23;96259;-93
2020/12/22 08:25:33;;;;;;;;;;;;;;;13.40;68.83;100332.00;6021392;23;99550;-93
2020/12/22 08:27:59;;;;;;;;;;;;;;;13.51;68.45;100327.00;6020849;23;100460;-92
2020/12/22 08:38:34;;;;;;;;;;;;;;;13.43;69.05;100331.00;6019100;23;96336;-93
2020/12/22 08:41:12;;;;;;;;;;;;;;;13.52;69.05;100343.78;6027804;23;96103;-92
2020/12/22 08:43:50;;;;;;;;;;;;;;;13.42;69.44;100337.25;5998343;23;98419;-93
2020/12/22 08:46:16;;;;;;;;;;;;;;;13.61;68.85;100345.06;5997062;23;97562;-95
2020/12/22 08:48:43;;;;;;;;;;;;;;;13.52;69.35;100357.91;5993138;23;98674;-93
2020/12/22 08:53:56;;;;;;;;;;;;;;;13.77;68.48;100344.16;5987757;23;96966;-93
2020/12/22 09:05:02;;;;;;;;;;;;;;;13.76;69.22;100355.72;6048568;23;96008;-94
2020/12/22 09:10:54;;;;;;;;;;;;;;;14.02;68.42;100369.38;6041705;23;96794;-94
2020/12/22 09:16:00;;;;;;;;;;;;;;;14.21;67.97;100364.75;6018853;23;96530;-95
2020/12/22 09:18:26;;;;;;;;;;;;;;;14.06;68.51;100374.41;6023022;23;97013;-94
2020/12/22 09:26:28;;;;;;;;;;;;;;;14.48;67.19;100392.44;6013708;23;96682;-90
2020/12/22 09:29:21;;;;;;;;;;;;;;;14.61;66.88;100377.50;6018185;23;99650;-91
2020/12/22 09:31:54;;;;;;;;;;;;;;;14.72;66.72;100382.19;6017539;23;98737;-92
2020/12/22 09:34:27;;;;;;;;;;;;;;;14.79;66.20;100378.22;6019783;23;96505;-94
2020/12/22 09:36:55;;;;;;;;;;;;;;;14.87;66.15;100383.09;6001945;23;96050;-93
2020/12/22 09:44:55;;;;;;;;;;;;;;;14.77;66.57;100373.97;6027443;23;96025;-85
2020/12/22 09:47:22;;;;;;;;;;;;;;;14.79;66.60;100386.22;6028501;23;96242;-81
2020/12/22 09:52:43;;;;;;;;;;;;;;;14.77;66.93;100390.75;6027003;23;96282;-84
2020/12/22 09:55:32;;;;;;;;;;;;;;;14.73;67.32;100395.41;6028566;23;95958;-84
2020/12/22 09:57:58;;;;;;;;;;;;;;;14.89;66.44;100387.41;6026172;23;96165;-86
2020/12/22 10:03:09;;;;;;;;;;;;;;;14.75;67.43;100397.97;6025218;23;97005;-88
2020/12/22 10:05:35;;;;;;;;;;;;;;;14.44;68.64;100393.53;6027809;23;96159;-91
2020/12/22 10:08:21;;;;;;;;;;;;;;;14.48;68.98;100389.78;6024974;23;96083;-92
2020/12/22 10:10:52;;;;;;;;;;;;;;;14.81;67.64;100383.47;6026791;23;100136;-92
2020/12/22 10:13:21;;;;;;;;;;;;;;;14.79;67.93;100385.34;6025564;23;96842;-92
2020/12/22 10:16:06;;;;;;;;;;;;;;;14.82;67.87;100394.03;6027333;23;96138;-93
2020/12/22 10:24:12;;;;;;;;;;;;;;;15.27;66.37;100390.44;6025532;23;96616;-91
2020/12/22 10:26:46;;;;;;;;;;;;;;;15.34;66.16;100391.78;6028413;23;96018;-90
2020/12/22 10:29:17;;;;;;;;;;;;;;;15.08;67.16;100381.84;5994303;23;96402;-83
2020/12/22 10:39:48;;;;;;;;;;;;;;;15.40;66.72;100394.06;5949248;23;100196;-79
2020/12/22 10:42:16;;;;;;;;;;;;;;;15.09;67.57;100392.41;5997847;23;96684;-92
2020/12/22 10:44:42;;;;;;;;;;;;;;;15.09;67.44;100392.41;6051415;23;98319;-87
2020/12/22 10:47:08;;;;;;;;;;;;;;;14.91;69.13;100398.78;6058452;23;95937;-81
2020/12/22 10:50:11;;;;;;;;;;;;;;;15.15;68.34;100399.16;6058549;23;97346;-79
2020/12/22 10:57:54;;;;;;;;;;;;;;;15.43;67.38;100417.81;5951006;23;101442;-88
2020/12/22 11:00:27;;;;;;;;;;;;;;;15.40;67.45;100412.69;6000175;23;96920;-90
2020/12/22 11:02:55;;;;;;;;;;;;;;;15.40;67.62;100418.03;5956225;23;100367;-80
2020/12/22 11:08:08;;;;;;;;;;;;;;;15.46;67.30;100409.66;6029849;23;95868;-86
2020/12/22 11:10:57;;;;;;;;;;;;;;;15.46;67.42;100422.97;6028607;23;95964;-89
2020/12/22 11:16:13;;;;;;;;;;;;;;;15.15;68.79;100423.09;6020764;23;96920;-93
2020/12/22 11:18:39;;;;;;;;;;;;;;;15.34;68.16;100421.06;6024891;23;96729;-91
2020/12/22 11:21:10;;;;;;;;;;;;;;;15.60;67.41;100415.97;6025252;23;96128;-93
2020/12/22 11:23:36;;;;;;;;;;;;;;;15.28;68.68;100426.75;6026690;23;97032;-93
2020/12/22 11:26:04;;;;;;;;;;;;;;;15.20;68.11;100425.47;6027413;23;99448;-94
2020/12/22 11:28:43;;;;;;;;;;;;;;;15.54;67.78;100428.72;6022084;23;96220;-87
2020/12/22 11:31:24;;;;;;;;;;;;;;;15.45;68.09;100420.41;6026384;23;96865;-81
2020/12/22 11:41:50;;;;;;;;;;;;;;;15.73;67.04;100428.44;5987279;23;100419;-92
2020/12/22 11:44:20;;;;;;;;;;;;;;;15.84;66.73;100436.63;6056726;23;99788;-92
2020/12/22 11:46:48;;;;;;;;;;;;;;;15.69;67.09;100440.22;6057086;23;99710;-93
2020/12/22 11:49:17;;;;;;;;;;;;;;;15.36;68.70;100451.09;6056544;23;96551;-92
2020/12/22 11:54:55;;;;;;;;;;;;;;;15.69;67.31;100434.91;6053328;23;96564;-91
2020/12/22 11:57:21;;;;;;;;;;;;;;;15.94;66.35;100456.44;6051653;23;97004;-91
2020/12/22 11:59:50;;;;;;;;;;;;;;;15.91;66.33;100445.09;6053622;23;96434;-90
2020/12/22 12:02:20;;;;;;;;;;;;;;;15.70;67.07;100451.75;6054251;23;96503;-91
2020/12/22 12:04:46;;;;;;;;;;;;;;;15.83;66.89;100452.69;6053687;23;97114;-91
2020/12/22 12:07:34;;;;;;;;;;;;;;;16.05;66.03;100453.09;6055022;23;100690;-92
2020/12/22 12:10:09;;;;;;;;;;;;;;;16.02;66.26;100452.41;6058347;23;95837;-92
2020/12/22 12:12:44;;;;;;;;;;;;;;;16.06;66.21;100464.59;6057843;23;96123;-93
2020/12/22 12:18:29;;;;;;;;;;;;;;;16.16;65.79;100461.25;6054263;23;96762;-90
2020/12/22 12:24:05;;;;;;;;;;;;;;;16.22;65.61;100460.88;6026392;23;96582;-94
2020/12/22 12:26:37;;;;;;;;;;;;;;;16.37;65.25;100467.06;6056735;23;97226;-95
2020/12/22 12:34:37;;;;;;;;;;;;;;;17.18;62.71;100451.94;6053543;23;96085;-92
2020/12/22 12:37:07;;;;;;;;;;;;;;;17.13;63.06;100454.91;6053386;23;97199;-90
2020/12/22 12:42:23;;;;;;;;;;;;;;;16.80;63.73;100446.50;6049497;23;96565;-90
2020/12/22 12:44:49;;;;;;;;;;;;;;;16.90;63.54;100447.59;6054402;23;96722;-89
2020/12/22 12:49:56;;;;;;;;;;;;;;;16.79;63.92;100450.13;6016768;23;98972;-91
2020/12/22 12:52:25;;;;;;;;;;;;;;;16.80;63.96;100459.00;6056346;23;95872;-92
2020/12/22 12:54:52;;;;;;;;;;;;;;;17.03;63.50;100453.81;6055391;23;96484;-91
2020/12/22 12:57:19;;;;;;;;;;;;;;;17.29;62.31;100461.91;6054896;23;98271;-90
2020/12/22 12:59:46;;;;;;;;;;;;;;;16.88;64.08;100459.31;6051612;23;98943;-90
2020/12/22 13:02:12;;;;;;;;;;;;;;;17.29;62.33;100475.25;6054166;23;96513;-92
2020/12/22 13:07:20;;;;;;;;;;;;;;;16.58;63.72;100478.16;6050697;23;99394;-91
2020/12/22 13:10:06;;;;;;;;;;;;;;;16.96;62.83;100481.03;6053597;23;97812;-91
2020/12/22 13:18:10;;;;;;;;;;;;;;;16.01;65.06;100472.91;6049505;23;96962;-90
2020/12/22 13:26:35;;;;;;;;;;;;;;;16.52;63.86;100468.75;6048874;23;96530;-91
2020/12/22 13:29:03;;;;;;;;;;;;;;;16.71;63.15;100484.44;6055233;23;98628;-91
2020/12/22 13:31:30;;;;;;;;;;;;;;;16.46;63.91;100481.63;6055328;23;99945;-91
2020/12/22 13:36:36;;;;;;;;;;;;;;;16.82;62.93;100481.06;6055048;23;96194;-92
2020/12/22 13:39:21;;;;;;;;;;;;;;;16.81;62.91;100479.34;6054956;23;98354;-84
2020/12/22 13:41:51;;;;;;;;;;;;;;;16.62;63.88;100485.03;6056637;23;98826;-86
2020/12/22 13:44:18;;;;;;;;;;;;;;;16.75;63.17;100491.28;6057388;23;96099;-89
2020/12/22 13:46:55;;;;;;;;;;;;;;;16.93;62.76;100495.44;6056869;23;96061;-87
2020/12/22 13:52:04;;;;;;;;;;;;;;;16.40;64.26;100490.00;6055403;23;98728;-83
2020/12/22 13:54:30;;;;;;;;;;;;;;;16.74;63.33;100492.22;6057337;23;95994;-88
2020/12/22 13:59:38;;;;;;;;;;;;;;;16.62;63.75;100496.56;6055138;23;99242;-85
2020/12/22 14:02:05;;;;;;;;;;;;;;;16.27;65.13;100501.47;6031112;23;97836;-82
2020/12/22 14:04:31;;;;;;;;;;;;;;;16.94;62.85;100501.59;6057708;23;96507;-86
2020/12/22 14:12:20;;;;;;;;;;;;;;;16.71;63.28;100503.97;6055062;23;98149;-87
2020/12/22 14:14:55;;;;;;;;;;;;;;;16.63;63.08;100508.09;6056094;23;96104;-89
2020/12/22 14:17:26;;;;;;;;;;;;;;;16.57;63.50;100524.44;6055130;23;96132;-87
2020/12/22 14:19:53;;;;;;;;;;;;;;;16.41;63.89;100518.41;6050700;23;99928;-88
2020/12/22 14:22:26;;;;;;;;;;;;;;;16.46;63.99;100522.47;6046365;23;99256;-87
2020/12/22 14:24:52;;;;;;;;;;;;;;;16.59;63.38;100527.88;6023519;23;96805;-88
2020/12/22 14:27:18;;;;;;;;;;;;;;;16.58;63.41;100534.16;6053712;23;96475;-82
2020/12/22 14:29:44;;;;;;;;;;;;;;;16.18;64.49;100530.47;6056115;23;98330;-89
2020/12/22 14:32:11;;;;;;;;;;;;;;;16.32;63.88;100539.34;6055827;23;98074;-89
2020/12/22 14:34:38;;;;;;;;;;;;;;;16.08;64.36;100540.00;6054926;23;96215;-89
2020/12/22 14:37:04;;;;;;;;;;;;;;;16.54;63.08;100546.00;6055890;23;96092;-83
2020/12/22 14:39:30;;;;;;;;;;;;;;;16.57;62.96;100545.78;6055777;23;97134;-88
2020/12/22 14:41:56;;;;;;;;;;;;;;;16.81;62.46;100560.25;6055924;23;96681;-90
2020/12/22 14:44:35;;;;;;;;;;;;;;;16.85;62.13;100556.47;6056586;23;96559;-90
2020/12/22 14:47:04;;;;;;;;;;;;;;;16.30;64.43;100573.22;6056518;23;96584;-88
2020/12/22 14:49:35;;;;;;;;;;;;;;;16.54;63.86;100572.69;6055968;23;98455;-90
2020/12/22 14:52:04;;;;;;;;;;;;;;;16.42;64.62;100589.41;6055805;23;100656;-83
2020/12/22 14:54:30;;;;;;;;;;;;;;;16.27;65.25;100584.09;6055870;23;96667;-87
2020/12/22 15:00:00;;;;;;;;;;;;;;;15.85;66.55;100598.22;6055087;23;98964;-89
2020/12/22 15:02:31;;;;;;;;;;;;;;;15.95;66.74;100611.81;6045529;23;98407;-88
2020/12/22 15:07:42;;;;;;;;;;;;;;;16.31;66.03;100630.94;6054353;23;96745;-91
2020/12/22 15:12:49;;;;;;;;;;;;;;;16.23;66.65;100643.88;6054094;23;98843;-87
2020/12/22 15:15:15;;;;;;;;;;;;;;;15.65;68.74;100650.94;6024935;23;96673;-83
2020/12/22 15:17:42;;;;;;;;;;;;;;;16.09;67.04;100633.19;6028622;23;96890;-91
2020/12/22 15:20:11;;;;;;;;;;;;;;;15.92;67.92;100650.19;6028598;23;96609;-87
2020/12/22 15:22:37;;;;;;;;;;;;;;;16.19;66.50;100646.81;6025377;23;98617;-92
2020/12/22 15:25:04;;;;;;;;;;;;;;;16.35;65.67;100643.13;6022413;23;96391;-92
2020/12/22 15:27:31;;;;;;;;;;;;;;;15.63;68.01;100647.50;6023300;23;96664;-87
2020/12/22 15:29:57;;;;;;;;;;;;;;;16.04;66.68;100653.94;6028556;23;98314;-84
2020/12/22 15:32:23;;;;;;;;;;;;;;;15.70;67.22;100646.19;6003073;23;98313;-84